createdAt,value
2023-05-26T00:02:10.461Z,101608.03
2023-05-26T00:04:36.912Z,101607.59
2023-05-26T00:07:03.268Z,101603.59
2023-05-26T00:09:29.627Z,101602.97
2023-05-26T00:11:56.095Z,101610.97
2023-05-26T00:14:22.405Z,101610.16
2023-05-26T00:16:48.745Z,101612.03
2023-05-26T00:19:15.438Z,101613.97
2023-05-26T00:21:41.825Z,101622.72
2023-05-26T00:24:08.114Z,101619.16
2023-05-26T00:26:34.437Z,101619.31
2023-05-26T00:29:00.796Z,101617.72
2023-05-26T00:31:27.231Z,101622.28
2023-05-26T00:33:53.623Z,101622.56
2023-05-26T00:36:19.862Z,101615.56
2023-05-26T00:38:46.203Z,101625.19
2023-05-26T00:41:12.496Z,101621.78
2023-05-26T00:43:38.837Z,101615.72
2023-05-26T00:46:05.152Z,101611.38
2023-05-26T00:48:31.450Z,101614.78
2023-05-26T00:50:57.717Z,101601.81
2023-05-26T00:53:24.042Z,101601.91
2023-05-26T00:55:50.332Z,101601.91
2023-05-26T00:58:16.704Z,101607.16
2023-05-26T01:00:43.098Z,101610.78
2023-05-26T01:03:09.492Z,101601.31
2023-05-26T01:05:35.858Z,101602.44
2023-05-26T01:08:02.229Z,101607.00
2023-05-26T01:10:28.561Z,101606.28
2023-05-26T01:12:54.921Z,101616.09
2023-05-26T01:15:21.264Z,101614.56
2023-05-26T01:17:47.574Z,101620.88
2023-05-26T01:20:13.941Z,101614.25
2023-05-26T01:22:40.234Z,101618.84
2023-05-26T01:25:06.496Z,101621.78
2023-05-26T01:27:32.758Z,101620.28
2023-05-26T01:29:59.103Z,101626.66
2023-05-26T01:32:25.460Z,101618.84
2023-05-26T01:34:51.703Z,101617.28
2023-05-26T01:37:17.970Z,101613.72
2023-05-26T01:39:44.255Z,101618.25
2023-05-26T01:42:22.801Z,101621.81
2023-05-26T01:44:56.679Z,101614.09
2023-05-26T01:47:22.977Z,101615.03
2023-05-26T01:49:49.280Z,101618.31
2023-05-26T01:52:15.516Z,101609.44
2023-05-26T01:54:41.813Z,101610.03
2023-05-26T01:57:08.100Z,101609.19
2023-05-26T01:59:34.412Z,101615.53
2023-05-26T02:02:00.855Z,101612.91
2023-05-26T02:04:27.216Z,101603.19
2023-05-26T02:06:53.508Z,101607.63
2023-05-26T02:09:19.815Z,101602.34
2023-05-26T02:11:46.167Z,101595.25
2023-05-26T02:14:12.483Z,101600.53
2023-05-26T02:16:38.988Z,101599.47
2023-05-26T02:19:05.420Z,101601.34
2023-05-26T02:21:31.705Z,101602.13
2023-05-26T02:23:58.004Z,101601.34
2023-05-26T02:26:24.408Z,101611.88
2023-05-26T02:28:50.673Z,101604.06
2023-05-26T02:31:17.030Z,101602.34
2023-05-26T02:33:43.336Z,101599.75
2023-05-26T02:36:09.678Z,101603.41
2023-05-26T02:38:36.027Z,101600.06
2023-05-26T02:41:02.399Z,101594.03
2023-05-26T02:43:28.761Z,101594.19
2023-05-26T02:45:55.318Z,101591.72
2023-05-26T02:48:21.809Z,101595.41
2023-05-26T02:50:48.135Z,101592.97
2023-05-26T02:53:14.476Z,101590.41
2023-05-26T02:55:40.696Z,101592.41
2023-05-26T02:58:06.981Z,101589.13
2023-05-26T03:00:33.225Z,101581.31
2023-05-26T03:02:59.682Z,101586.75
2023-05-26T03:05:26.137Z,101585.94
2023-05-26T03:07:52.422Z,101586.81
2023-05-26T03:10:18.696Z,101588.69
2023-05-26T03:12:45.022Z,101592.31
2023-05-26T03:15:11.305Z,101589.69
2023-05-26T03:17:37.789Z,101595.91
2023-05-26T03:20:04.189Z,101595.22
2023-05-26T03:22:41.465Z,101588.28
2023-05-26T03:25:16.729Z,101596.22
2023-05-26T03:27:42.960Z,101582.22
2023-05-26T03:30:09.244Z,101588.44
2023-05-26T03:32:35.558Z,101596.25
2023-05-26T03:35:01.890Z,101596.38
2023-05-26T03:37:28.143Z,101600.13
2023-05-26T03:39:54.394Z,101598.63
2023-05-26T03:42:20.686Z,101604.31
2023-05-26T03:44:47.069Z,101601.81
2023-05-26T03:47:13.364Z,101601.88
2023-05-26T03:49:39.741Z,101594.16
2023-05-26T03:52:06.044Z,101605.69
2023-05-26T03:54:32.309Z,101610.94
2023-05-26T03:56:58.639Z,101609.19
2023-05-26T03:59:24.951Z,101611.84
2023-05-26T04:01:51.320Z,101618.03
2023-05-26T04:04:17.672Z,101621.44
2023-05-26T04:06:43.981Z,101616.19
2023-05-26T04:09:10.287Z,101619.72
2023-05-26T04:11:36.613Z,101619.69
2023-05-26T04:14:02.960Z,101615.22
2023-05-26T04:16:29.354Z,101617.84
2023-05-26T04:18:55.658Z,101616.88
2023-05-26T04:21:21.996Z,101621.16
2023-05-26T04:23:48.308Z,101618.44
2023-05-26T04:26:14.618Z,101624.41
2023-05-26T04:28:41.021Z,101620.06
2023-05-26T04:31:07.383Z,101615.53
2023-05-26T04:33:33.679Z,101621.66
2023-05-26T04:36:00.110Z,101624.16
2023-05-26T04:38:26.442Z,101625.81
2023-05-26T04:40:52.682Z,101617.81
2023-05-26T04:43:18.970Z,101622.97
2023-05-26T04:45:45.658Z,101625.41
2023-05-26T04:48:12.226Z,101612.94
2023-05-26T04:50:39.782Z,101622.34
2023-05-26T04:53:07.611Z,101629.09
2023-05-26T04:55:33.904Z,101632.53
2023-05-26T04:58:00.278Z,101643.53
2023-05-26T05:00:26.545Z,101644.97
2023-05-26T05:02:52.921Z,101640.41
2023-05-26T05:05:19.215Z,101640.28
2023-05-26T05:07:45.566Z,101641.03
2023-05-26T05:10:11.923Z,101643.41
2023-05-26T05:12:38.333Z,101640.72
2023-05-26T05:15:04.679Z,101639.66
2023-05-26T05:17:31.067Z,101643.16
2023-05-26T05:20:13.639Z,101633.22
2023-05-26T05:22:41.948Z,101640.28
2023-05-26T05:25:08.239Z,101639.03
2023-05-26T05:27:34.524Z,101640.53
2023-05-26T05:30:00.750Z,101642.13
2023-05-26T05:32:27.181Z,101658.00
2023-05-26T05:34:53.537Z,101650.91
2023-05-26T05:37:19.882Z,101661.19
2023-05-26T05:39:46.196Z,101661.59
2023-05-26T05:42:12.501Z,101654.38
2023-05-26T05:44:38.794Z,101656.72
2023-05-26T05:47:05.174Z,101663.31
2023-05-26T05:49:31.516Z,101666.75
2023-05-26T05:51:57.823Z,101669.03
2023-05-26T05:54:24.111Z,101668.91
2023-05-26T05:56:50.485Z,101672.88
2023-05-26T05:59:16.793Z,101671.66
2023-05-26T06:01:43.144Z,101677.53
2023-05-26T06:04:09.636Z,101679.53
2023-05-26T06:06:36.015Z,101681.03
2023-05-26T06:09:02.334Z,101684.16
2023-05-26T06:11:28.720Z,101682.81
2023-05-26T06:13:55.039Z,101687.75
2023-05-26T06:16:21.440Z,101695.00
2023-05-26T06:18:47.734Z,101685.75
2023-05-26T06:21:14.028Z,101692.00
2023-05-26T06:23:40.286Z,101689.69
2023-05-26T06:26:06.607Z,101690.47
2023-05-26T06:28:32.855Z,101693.75
2023-05-26T06:30:59.183Z,101696.84
2023-05-26T06:33:25.525Z,101698.97
2023-05-26T06:35:51.837Z,101704.06
2023-05-26T06:38:18.159Z,101703.25
2023-05-26T06:40:44.745Z,101708.69
2023-05-26T06:43:11.287Z,101709.00
2023-05-26T06:45:37.600Z,101709.63
2023-05-26T06:48:03.947Z,101714.44
2023-05-26T06:50:30.361Z,101714.47
2023-05-26T06:52:56.658Z,101722.84
2023-05-26T06:55:22.987Z,101724.06
2023-05-26T06:57:49.282Z,101726.13
2023-05-26T07:00:15.570Z,101732.50
2023-05-26T07:02:41.925Z,101734.81
2023-05-26T07:05:08.293Z,101738.81
2023-05-26T07:07:34.632Z,101732.28
2023-05-26T07:10:00.972Z,101732.47
2023-05-26T07:12:27.315Z,101732.47
2023-05-26T07:14:53.744Z,101732.56
2023-05-26T07:17:20.086Z,101728.22
2023-05-26T07:19:46.488Z,101724.69
2023-05-26T07:22:12.890Z,101724.19
2023-05-26T07:24:39.184Z,101724.41
2023-05-26T07:27:05.516Z,101723.38
2023-05-26T07:29:31.839Z,101724.03
2023-05-26T07:31:58.183Z,101723.75
2023-05-26T07:34:24.515Z,101720.09
2023-05-26T07:36:50.865Z,101729.09
2023-05-26T07:39:17.139Z,101728.38
2023-05-26T07:41:43.504Z,101728.97
2023-05-26T07:44:09.758Z,101742.00
2023-05-26T07:46:36.113Z,101734.25
2023-05-26T07:49:02.519Z,101735.94
2023-05-26T07:51:28.837Z,101730.50
2023-05-26T07:53:55.120Z,101734.94
2023-05-26T07:56:21.468Z,101731.53
2023-05-26T07:58:47.812Z,101735.50
2023-05-26T08:01:14.090Z,101737.47
2023-05-26T08:03:40.598Z,101750.25
2023-05-26T08:06:18.027Z,101747.59
2023-05-26T08:08:51.759Z,101741.66
2023-05-26T08:13:44.414Z,101751.41
2023-05-26T08:16:10.779Z,101754.69
2023-05-26T08:18:37.170Z,101755.91
2023-05-26T08:21:03.541Z,101748.09
2023-05-26T08:23:29.878Z,101750.66
2023-05-26T08:25:56.165Z,101752.13
2023-05-26T08:28:22.487Z,101749.16
2023-05-26T08:30:48.726Z,101749.16
2023-05-26T08:33:15.005Z,101751.19
2023-05-26T08:35:41.344Z,101760.22
2023-05-26T08:38:07.626Z,101760.53
2023-05-26T08:40:33.916Z,101761.03
2023-05-26T08:43:00.208Z,101759.38
2023-05-26T08:45:26.523Z,101754.56
2023-05-26T08:47:53.381Z,101759.84
2023-05-26T08:50:19.934Z,101768.25
2023-05-26T08:52:54.422Z,101759.09
2023-05-26T08:55:31.560Z,101758.66
2023-05-26T08:57:58.177Z,101760.41
2023-05-26T09:00:25.026Z,101758.28
2023-05-26T09:02:51.533Z,101766.94
2023-05-26T09:05:17.865Z,101769.34
2023-05-26T09:07:44.150Z,101777.59
2023-05-26T09:10:10.510Z,101774.47
2023-05-26T09:12:36.859Z,101777.63
2023-05-26T09:15:03.196Z,101780.53
2023-05-26T09:17:29.576Z,101786.59
2023-05-26T09:19:55.882Z,101779.75
2023-05-26T09:22:22.216Z,101780.56
2023-05-26T09:24:48.611Z,101781.91
2023-05-26T09:27:15.132Z,101788.09
2023-05-26T09:29:41.468Z,101782.28
2023-05-26T09:32:07.797Z,101782.97
2023-05-26T09:34:34.078Z,101786.75
2023-05-26T09:37:00.348Z,101787.19
2023-05-26T09:39:26.705Z,101783.81
2023-05-26T09:41:53.039Z,101781.50
2023-05-26T09:44:19.399Z,101775.13
2023-05-26T09:46:45.793Z,101775.81
2023-05-26T09:49:12.197Z,101774.94
2023-05-26T09:51:39.194Z,101776.44
2023-05-26T09:54:05.605Z,101772.00
2023-05-26T09:56:31.952Z,101774.69
2023-05-26T09:58:58.268Z,101774.47
2023-05-26T10:01:24.602Z,101763.94
2023-05-26T10:03:50.912Z,101772.59
2023-05-26T10:06:17.206Z,101775.16
2023-05-26T10:08:43.536Z,101774.28
2023-05-26T10:11:10.013Z,101768.81
2023-05-26T10:13:36.364Z,101771.53
2023-05-26T10:16:02.723Z,101770.41
2023-05-26T10:18:29.124Z,101769.59
2023-05-26T10:20:55.726Z,101771.25
2023-05-26T10:23:22.075Z,101759.53
2023-05-26T10:25:48.349Z,101763.63
2023-05-26T10:28:14.680Z,101761.75
2023-05-26T10:30:41.215Z,101759.91
2023-05-26T10:33:07.670Z,101751.13
2023-05-26T10:35:34.077Z,101750.66
2023-05-26T10:38:00.448Z,101748.81
2023-05-26T10:40:26.756Z,101744.00
2023-05-26T10:42:53.113Z,101743.09
2023-05-26T10:45:19.499Z,101745.56
2023-05-26T10:47:45.818Z,101739.56
2023-05-26T10:50:12.249Z,101739.13
2023-05-26T10:52:38.593Z,101741.03
2023-05-26T10:55:04.939Z,101738.06
2023-05-26T10:57:31.308Z,101735.50
2023-05-26T10:59:57.615Z,101737.56
2023-05-26T11:02:23.960Z,101736.31
2023-05-26T11:04:50.256Z,101732.84
2023-05-26T11:07:16.576Z,101726.75
2023-05-26T11:09:42.897Z,101727.47
2023-05-26T11:12:09.141Z,101730.97
2023-05-26T11:14:35.477Z,101731.38
2023-05-26T11:17:01.825Z,101722.72
2023-05-26T11:19:28.119Z,101728.88
2023-05-26T11:21:54.388Z,101726.13
2023-05-26T11:24:20.686Z,101724.19
2023-05-26T11:26:47.036Z,101715.97
2023-05-26T11:29:13.358Z,101722.34
2023-05-26T11:31:39.852Z,101725.88
2023-05-26T11:34:06.379Z,101722.00
2023-05-26T11:36:32.696Z,101724.69
2023-05-26T11:38:59.053Z,101719.00
2023-05-26T11:41:25.448Z,101715.06
2023-05-26T11:43:51.847Z,101714.25
2023-05-26T11:46:18.216Z,101710.50
2023-05-26T11:48:44.545Z,101716.78
2023-05-26T11:51:10.932Z,101714.31
2023-05-26T11:53:37.208Z,101708.53
2023-05-26T11:56:03.488Z,101708.75
2023-05-26T11:58:29.757Z,101713.28
2023-05-26T12:00:56.085Z,101706.44
2023-05-26T12:03:22.464Z,101705.63
2023-05-26T12:05:48.864Z,101706.78
2023-05-26T12:08:15.221Z,101709.00
2023-05-26T12:10:41.526Z,101696.22
2023-05-26T12:13:07.836Z,101704.53
2023-05-26T12:15:34.110Z,101694.47
2023-05-26T12:18:00.445Z,101700.50
2023-05-26T12:20:43.642Z,101700.13
2023-05-26T12:23:11.410Z,101695.63
2023-05-26T12:25:37.721Z,101700.22
2023-05-26T12:28:04.002Z,101696.19
2023-05-26T12:30:44.371Z,101696.19
2023-05-26T12:33:14.657Z,101684.72
2023-05-26T12:35:40.937Z,101681.50
2023-05-26T12:38:07.187Z,101682.75
2023-05-26T12:40:33.452Z,101680.91
2023-05-26T12:42:59.712Z,101684.97
2023-05-26T12:45:26.026Z,101685.81
2023-05-26T12:47:52.438Z,101683.63
2023-05-26T12:50:18.743Z,101675.94
2023-05-26T12:52:44.992Z,101675.31
2023-05-26T12:55:11.340Z,101682.91
2023-05-26T12:57:37.674Z,101681.41
2023-05-26T13:00:04.006Z,101679.53
2023-05-26T13:02:30.506Z,101679.00
2023-05-26T13:04:56.887Z,101678.00
2023-05-26T13:07:23.197Z,101668.34
2023-05-26T13:09:49.523Z,101672.47
2023-05-26T13:12:15.821Z,101673.53
2023-05-26T13:14:42.154Z,101673.78
2023-05-26T13:17:08.568Z,101671.06
2023-05-26T13:19:35.163Z,101668.41
2023-05-26T13:22:01.447Z,101661.84
2023-05-26T13:24:27.831Z,101662.53
2023-05-26T13:26:54.177Z,101659.00
2023-05-26T13:29:20.569Z,101655.56
2023-05-26T13:31:46.876Z,101655.09
2023-05-26T13:34:13.203Z,101653.91
2023-05-26T13:36:39.487Z,101660.84
2023-05-26T13:39:05.838Z,101652.75
2023-05-26T13:41:32.102Z,101663.47
2023-05-26T13:43:58.341Z,101645.97
2023-05-26T13:46:24.678Z,101650.69
2023-05-26T13:48:50.977Z,101643.44
2023-05-26T13:51:17.374Z,101640.41
2023-05-26T13:53:43.671Z,101641.97
2023-05-26T13:56:24.910Z,101644.47
2023-05-26T13:58:53.732Z,101648.22
2023-05-26T14:01:31.439Z,101649.22
2023-05-26T14:04:01.949Z,101646.09
2023-05-26T14:06:28.294Z,101644.31
2023-05-26T14:08:54.640Z,101645.19
2023-05-26T14:11:20.970Z,101641.25
2023-05-26T14:13:47.273Z,101649.47
2023-05-26T14:16:13.531Z,101647.56
2023-05-26T14:18:55.031Z,101652.84
2023-05-26T14:21:57.768Z,101641.59
2023-05-26T14:24:12.350Z,101643.31
2023-05-26T14:26:38.726Z,101635.38
2023-05-26T14:29:05.012Z,101636.72
2023-05-26T14:31:31.334Z,101629.59
2023-05-26T14:33:57.640Z,101628.25
2023-05-26T14:36:23.925Z,101623.34
2023-05-26T14:38:50.258Z,101623.81
2023-05-26T14:41:16.597Z,101619.00
2023-05-26T14:43:42.942Z,101621.50
2023-05-26T14:46:09.294Z,101620.38
2023-05-26T14:48:35.659Z,101621.34
2023-05-26T14:51:01.954Z,101620.50
2023-05-26T14:53:28.245Z,101620.00
2023-05-26T14:55:54.592Z,101617.25
2023-05-26T14:58:20.938Z,101615.56
2023-05-26T15:00:47.273Z,101609.97
2023-05-26T15:03:13.744Z,101597.19
2023-05-26T15:05:40.050Z,101601.63
2023-05-26T15:08:06.351Z,101604.81
2023-05-26T15:10:35.878Z,101600.81
2023-05-26T15:13:18.902Z,101608.81
2023-05-26T15:15:45.215Z,101608.75
2023-05-26T15:18:11.981Z,101602.03
2023-05-26T15:20:40.762Z,101608.13
2023-05-26T15:23:09.073Z,101596.41
2023-05-26T15:25:35.376Z,101591.03
2023-05-26T15:28:01.726Z,101599.75
2023-05-26T15:30:28.054Z,101592.88
2023-05-26T15:32:54.355Z,101596.94
2023-05-26T15:35:20.682Z,101596.25
2023-05-26T15:37:52.351Z,101599.09
2023-05-26T15:40:28.570Z,101592.38
2023-05-26T15:42:54.938Z,101591.69
2023-05-26T15:45:21.231Z,101598.91
2023-05-26T15:47:47.577Z,101590.41
2023-05-26T15:50:13.797Z,101592.78
2023-05-26T15:52:40.040Z,101583.91
2023-05-26T15:55:06.435Z,101588.66
2023-05-26T15:57:32.807Z,101588.16
2023-05-26T15:59:59.164Z,101595.91
2023-05-26T16:02:25.474Z,101584.94
2023-05-26T16:04:51.829Z,101586.31
2023-05-26T16:07:18.235Z,101578.38
2023-05-26T16:09:44.559Z,101581.41
2023-05-26T16:12:10.894Z,101578.84
2023-05-26T16:14:37.215Z,101580.81
2023-05-26T16:17:03.540Z,101577.03
2023-05-26T16:19:29.973Z,101567.59
2023-05-26T16:21:56.259Z,101573.84
2023-05-26T16:24:22.561Z,101587.25
2023-05-26T16:26:48.966Z,101582.94
2023-05-26T16:29:15.249Z,101574.03
2023-05-26T16:31:41.735Z,101572.34
2023-05-26T16:34:08.132Z,101569.09
2023-05-26T16:36:34.480Z,101568.41
2023-05-26T16:39:00.778Z,101570.84
2023-05-26T16:41:27.067Z,101570.34
2023-05-26T16:43:53.372Z,101566.72
2023-05-26T16:46:19.781Z,101564.72
2023-05-26T16:48:46.221Z,101569.69
2023-05-26T16:51:12.471Z,101572.47
2023-05-26T16:53:38.779Z,101575.81
2023-05-26T16:56:05.098Z,101578.41
2023-05-26T16:58:31.435Z,101566.59
2023-05-26T17:00:57.785Z,101568.69
2023-05-26T17:03:24.161Z,101566.41
2023-05-26T17:05:50.577Z,101567.78
2023-05-26T17:08:16.900Z,101557.94
2023-05-26T17:10:43.193Z,101559.03
2023-05-26T17:13:09.554Z,101562.75
2023-05-26T17:15:35.921Z,101564.63
2023-05-26T17:18:02.340Z,101568.25
2023-05-26T17:20:28.782Z,101560.38
2023-05-26T17:22:55.316Z,101564.28
2023-05-26T17:25:21.634Z,101564.13
2023-05-26T17:27:48.162Z,101562.63
2023-05-26T17:30:14.481Z,101561.34
2023-05-26T17:32:40.821Z,101561.69
2023-05-26T17:35:07.159Z,101555.31
2023-05-26T17:37:33.568Z,101560.16
2023-05-26T17:40:00.004Z,101556.84
2023-05-26T17:42:26.271Z,101555.75
2023-05-26T17:44:52.558Z,101558.53
2023-05-26T17:47:18.877Z,101552.31
2023-05-26T17:49:45.242Z,101559.25
2023-05-26T17:52:11.616Z,101559.31
2023-05-26T17:54:38.013Z,101571.44
2023-05-26T17:57:04.376Z,101571.34
2023-05-26T17:59:30.751Z,101572.75
2023-05-26T18:01:57.214Z,101569.84
2023-05-26T18:04:23.606Z,101570.88
2023-05-26T18:06:49.991Z,101579.09
2023-05-26T18:09:16.318Z,101579.50
2023-05-26T18:11:42.640Z,101578.66
2023-05-26T18:14:09.182Z,101571.94
2023-05-26T18:16:35.485Z,101576.84
2023-05-26T18:19:01.748Z,101578.88
2023-05-26T18:21:28.047Z,101581.84
2023-05-26T18:23:54.334Z,101587.91
2023-05-26T18:26:20.624Z,101588.66
2023-05-26T18:28:46.982Z,101589.03
2023-05-26T18:31:13.300Z,101597.38
2023-05-26T18:33:39.652Z,101588.50
2023-05-26T18:36:07.470Z,101596.78
2023-05-26T18:38:33.901Z,101588.50
2023-05-26T18:41:00.400Z,101594.28
2023-05-26T18:43:26.920Z,101596.50
2023-05-26T18:45:53.280Z,101599.59
2023-05-26T18:48:19.693Z,101592.06
2023-05-26T18:50:46.046Z,101592.47
2023-05-26T18:53:12.469Z,101605.25
2023-05-26T18:55:38.750Z,101602.72
2023-05-26T18:58:05.074Z,101610.91
2023-05-26T19:00:31.319Z,101614.69
2023-05-26T19:02:57.772Z,101612.25
2023-05-26T19:05:24.170Z,101614.25
2023-05-26T19:07:50.509Z,101613.44
2023-05-26T19:10:16.826Z,101622.44
2023-05-26T19:12:43.099Z,101615.34
2023-05-26T19:15:09.422Z,101617.44
2023-05-26T19:17:35.697Z,101610.97
2023-05-26T19:20:02.113Z,101606.16
2023-05-26T19:22:28.571Z,101599.59
2023-05-26T19:24:54.909Z,101597.34
2023-05-26T19:27:21.251Z,101594.34
2023-05-26T19:29:47.555Z,101587.13
2023-05-26T19:32:13.825Z,101591.59
2023-05-26T19:34:40.166Z,101583.31
2023-05-26T19:37:06.524Z,101588.75
2023-05-26T19:39:32.881Z,101592.97
2023-05-26T19:41:59.188Z,101595.72
2023-05-26T19:44:25.464Z,101596.78
2023-05-26T19:46:51.865Z,101601.91
2023-05-26T19:49:18.319Z,101607.09
2023-05-26T19:51:44.652Z,101613.28
2023-05-26T19:54:10.966Z,101605.41
2023-05-26T19:56:37.196Z,101607.97
2023-05-26T19:59:03.510Z,101612.41
2023-05-26T20:01:29.989Z,101607.31
2023-05-26T20:03:56.419Z,101604.34
2023-05-26T20:06:22.790Z,101608.44
2023-05-26T20:08:49.093Z,101605.34
2023-05-26T20:11:15.334Z,101610.09
2023-05-26T20:13:41.669Z,101602.53
2023-05-26T20:16:07.979Z,101611.75
2023-05-26T20:18:34.263Z,101618.22
2023-05-26T20:21:00.709Z,101617.66
2023-05-26T20:23:27.103Z,101617.00
2023-05-26T20:25:53.382Z,101612.75
2023-05-26T20:28:19.719Z,101614.63
2023-05-26T20:30:46.031Z,101615.59
2023-05-26T20:33:12.422Z,101616.84
2023-05-26T20:35:38.828Z,101619.06
2023-05-26T20:38:05.142Z,101615.06
2023-05-26T20:40:31.453Z,101610.56
2023-05-26T20:42:57.741Z,101603.53
2023-05-26T20:45:24.101Z,101606.97
2023-05-26T20:47:50.539Z,101601.41
2023-05-26T20:50:16.927Z,101606.38
2023-05-26T20:52:43.281Z,101613.41
2023-05-26T20:55:09.592Z,101611.22
2023-05-26T20:57:35.827Z,101613.94
2023-05-26T21:00:02.094Z,101614.81
2023-05-26T21:02:28.434Z,101600.03
2023-05-26T21:04:54.734Z,101600.63
2023-05-26T21:07:21.054Z,101606.25
2023-05-26T21:09:47.407Z,101610.19
2023-05-26T21:12:13.695Z,101612.56
2023-05-26T21:14:40.016Z,101612.34
2023-05-26T21:17:06.450Z,101616.69
2023-05-26T21:19:32.775Z,101621.97
2023-05-26T21:21:59.089Z,101611.47
2023-05-26T21:24:25.417Z,101607.09
2023-05-26T21:26:51.676Z,101620.34
2023-05-26T21:29:18.023Z,101622.06
2023-05-26T21:31:44.456Z,101629.84
2023-05-26T21:34:10.806Z,101618.94
2023-05-26T21:36:37.090Z,101614.50
2023-05-26T21:39:03.392Z,101616.97
2023-05-26T21:41:29.700Z,101622.25
2023-05-26T21:43:56.005Z,101621.34
2023-05-26T21:46:22.328Z,101618.59
2023-05-26T21:48:48.663Z,101620.47
2023-05-26T21:51:14.970Z,101623.13
2023-05-26T21:53:41.258Z,101616.97
2023-05-26T21:56:07.602Z,101616.22
2023-05-26T21:58:33.902Z,101617.38
2023-05-26T22:01:00.269Z,101618.50
2023-05-26T22:03:27.935Z,101617.97
2023-05-26T22:05:54.663Z,101620.78
2023-05-26T22:08:21.177Z,101629.69
2023-05-26T22:10:47.533Z,101619.25
2023-05-26T22:13:13.847Z,101635.06
2023-05-26T22:15:40.256Z,101629.47
2023-05-26T22:18:06.640Z,101622.59
2023-05-26T22:20:33.089Z,101624.75
2023-05-26T22:22:59.622Z,101618.69
2023-05-26T22:25:25.904Z,101621.81
2023-05-26T22:27:52.181Z,101621.19
2023-05-26T22:30:18.606Z,101623.00
2023-05-26T22:32:45.166Z,101628.22
2023-05-26T22:35:11.523Z,101619.31
2023-05-26T22:37:37.863Z,101616.88
2023-05-26T22:40:04.159Z,101617.03
2023-05-26T22:42:30.536Z,101605.69
2023-05-26T22:44:56.831Z,101612.09
2023-05-26T22:47:23.193Z,101611.53
2023-05-26T22:49:49.531Z,101608.28
2023-05-26T22:52:15.824Z,101604.69
2023-05-26T22:54:42.113Z,101608.94
2023-05-26T22:57:08.465Z,101614.44
2023-05-26T22:59:34.782Z,101617.31
2023-05-26T23:02:01.129Z,101611.19
2023-05-26T23:04:27.473Z,101612.59
2023-05-26T23:06:53.775Z,101616.03
2023-05-26T23:09:20.141Z,101612.16
2023-05-26T23:11:46.446Z,101617.84
2023-05-26T23:14:12.783Z,101617.69
2023-05-26T23:16:39.142Z,101627.84
2023-05-26T23:19:05.502Z,101624.91
2023-05-26T23:21:31.839Z,101631.25
2023-05-26T23:23:58.132Z,101632.06
2023-05-26T23:26:24.546Z,101637.03
2023-05-26T23:28:50.856Z,101639.00
2023-05-26T23:31:17.233Z,101641.63
2023-05-26T23:33:43.631Z,101642.06
2023-05-26T23:36:10.000Z,101642.84
2023-05-26T23:38:36.311Z,101648.03
2023-05-26T23:41:02.618Z,101645.31
2023-05-26T23:43:28.994Z,101660.34
2023-05-26T23:45:55.558Z,101650.44
2023-05-26T23:48:22.116Z,101649.56
2023-05-26T23:50:48.444Z,101659.06
2023-05-26T23:53:14.829Z,101649.25
2023-05-26T23:55:41.094Z,101654.88
2023-05-26T23:58:07.425Z,101665.78
